createdAt,value
2023-05-14T00:01:24.680Z,34.10
2023-05-14T00:03:51.804Z,33.90
2023-05-14T00:06:18.771Z,33.60
2023-05-14T00:08:45.956Z,33.90
2023-05-14T00:11:12.955Z,34.80
2023-05-14T00:13:39.892Z,36.10
2023-05-14T00:16:06.839Z,37.00
2023-05-14T00:18:33.853Z,38.70
2023-05-14T00:21:00.861Z,38.20
2023-05-14T00:23:27.743Z,41.00
2023-05-14T00:25:54.654Z,40.50
2023-05-14T00:28:21.813Z,41.30
2023-05-14T00:30:48.713Z,41.00
2023-05-14T00:33:15.682Z,39.60
2023-05-14T00:35:42.620Z,41.60
2023-05-14T00:38:10.038Z,42.90
2023-05-14T00:40:37.057Z,41.60
2023-05-14T00:43:03.978Z,44.20
2023-05-14T00:45:31.283Z,44.30
2023-05-14T00:47:58.358Z,44.10
2023-05-14T00:50:26.200Z,44.10
2023-05-14T00:52:53.817Z,44.50
2023-05-14T00:55:22.634Z,44.60
2023-05-14T00:57:50.979Z,53.10
2023-05-14T01:00:18.154Z,45.10
2023-05-14T01:02:45.218Z,42.90
2023-05-14T01:05:12.266Z,43.50
2023-05-14T01:07:50.586Z,43.40
2023-05-14T01:10:36.370Z,42.20
2023-05-14T01:13:16.090Z,42.60
2023-05-14T01:15:47.501Z,44.20
2023-05-14T01:18:19.554Z,43.30
2023-05-14T01:20:46.582Z,44.60
2023-05-14T01:23:13.486Z,45.00
2023-05-14T01:25:41.099Z,45.10
2023-05-14T01:28:19.189Z,47.80
2023-05-14T01:30:59.057Z,49.30
2023-05-14T01:33:29.385Z,50.80
2023-05-14T01:35:56.684Z,51.40
2023-05-14T01:38:24.463Z,59.30
2023-05-14T01:40:52.137Z,58.90
2023-05-14T01:43:19.718Z,54.20
2023-05-14T01:45:46.981Z,53.20
2023-05-14T01:48:14.889Z,52.00
2023-05-14T01:50:41.809Z,52.00
2023-05-14T01:53:08.685Z,53.80
2023-05-14T01:55:35.582Z,54.90
2023-05-14T01:58:02.545Z,58.90
2023-05-14T02:00:29.461Z,58.50
2023-05-14T02:02:56.459Z,59.20
2023-05-14T02:05:23.438Z,60.90
2023-05-14T02:07:50.486Z,60.90
2023-05-14T02:10:17.469Z,61.80
2023-05-14T02:12:44.397Z,67.70
2023-05-14T02:15:11.607Z,67.30
2023-05-14T02:17:38.558Z,66.60
2023-05-14T02:20:06.153Z,69.20
2023-05-14T02:22:33.073Z,69.60
2023-05-14T02:24:59.965Z,72.70
2023-05-14T02:27:27.047Z,71.10
2023-05-14T02:29:54.162Z,74.30
2023-05-14T02:32:21.087Z,73.30
2023-05-14T02:34:48.040Z,73.00
2023-05-14T02:37:15.011Z,73.10
2023-05-14T02:39:41.955Z,72.80
2023-05-14T02:42:08.893Z,74.80
2023-05-14T02:44:36.007Z,75.40
2023-05-14T02:47:02.970Z,77.60
2023-05-14T02:49:30.048Z,79.90
2023-05-14T02:51:56.956Z,84.20
2023-05-14T02:54:24.891Z,89.30
2023-05-14T02:56:51.829Z,91.10
2023-05-14T02:59:18.956Z,92.40
2023-05-14T03:01:47.351Z,95.00
2023-05-14T03:04:14.655Z,92.80
2023-05-14T03:06:41.629Z,92.60
2023-05-14T03:09:08.547Z,94.40
2023-05-14T03:11:35.517Z,93.40
2023-05-14T03:14:02.585Z,91.50
2023-05-14T03:16:29.474Z,89.70
2023-05-14T03:18:56.451Z,84.40
2023-05-14T03:21:24.091Z,88.30
2023-05-14T03:23:52.163Z,85.30
2023-05-14T03:26:19.263Z,86.90
2023-05-14T03:28:46.264Z,87.40
2023-05-14T03:31:13.225Z,89.80
2023-05-14T03:33:40.151Z,86.40
2023-05-14T03:36:07.352Z,83.10
2023-05-14T03:38:34.220Z,78.30
2023-05-14T03:41:01.142Z,74.70
2023-05-14T03:43:28.151Z,75.80
2023-05-14T03:45:55.017Z,80.50
2023-05-14T03:48:21.967Z,78.90
2023-05-14T03:50:48.975Z,75.20
2023-05-14T03:53:16.089Z,71.90
2023-05-14T03:55:42.951Z,73.00
2023-05-14T03:58:14.510Z,73.00
2023-05-14T04:00:42.327Z,73.60
2023-05-14T04:03:09.520Z,72.40
2023-05-14T04:05:36.634Z,71.90
2023-05-14T04:08:03.612Z,71.60
2023-05-14T04:10:31.137Z,69.60
2023-05-14T04:12:58.103Z,68.40
2023-05-14T04:15:25.106Z,67.00
2023-05-14T04:17:52.035Z,66.40
2023-05-14T04:20:19.269Z,65.50
2023-05-14T04:22:46.132Z,65.40
2023-05-14T04:25:13.024Z,65.60
2023-05-14T04:27:40.542Z,64.00
2023-05-14T04:30:08.580Z,64.00
2023-05-14T04:32:35.632Z,61.50
2023-05-14T04:35:04.096Z,59.80
2023-05-14T04:37:31.756Z,59.00
2023-05-14T04:39:58.929Z,58.20
2023-05-14T04:42:25.911Z,57.20
2023-05-14T04:44:52.807Z,56.60
2023-05-14T04:47:21.195Z,56.10
2023-05-14T04:49:48.244Z,55.90
2023-05-14T04:52:15.274Z,54.80
2023-05-14T04:54:42.210Z,54.00
2023-05-14T04:57:09.214Z,52.90
2023-05-14T04:59:36.117Z,51.70
2023-05-14T05:02:03.048Z,51.40
2023-05-14T05:04:30.045Z,50.80
2023-05-14T05:06:56.896Z,50.40
2023-05-14T05:09:23.751Z,50.70
2023-05-14T05:11:50.794Z,50.30
2023-05-14T05:14:17.823Z,50.00
2023-05-14T05:16:45.078Z,49.20
2023-05-14T05:19:12.168Z,48.60
2023-05-14T05:21:40.913Z,47.90
2023-05-14T05:24:08.762Z,47.70
2023-05-14T05:26:38.771Z,47.50
2023-05-14T05:29:05.989Z,48.00
2023-05-14T05:31:33.276Z,47.40
2023-05-14T05:34:00.745Z,46.50
2023-05-14T05:36:27.676Z,46.50
2023-05-14T05:38:55.222Z,47.10
2023-05-14T05:41:22.595Z,46.20
2023-05-14T05:43:49.560Z,45.90
2023-05-14T05:46:16.504Z,44.90
2023-05-14T05:48:43.458Z,44.10
2023-05-14T05:51:10.480Z,43.00
2023-05-14T05:53:37.434Z,42.00
2023-05-14T05:56:04.463Z,41.50
2023-05-14T05:58:31.332Z,41.40
2023-05-14T06:00:58.331Z,40.10
2023-05-14T06:05:55.587Z,39.20
2023-05-14T06:08:22.517Z,40.30
2023-05-14T06:10:49.440Z,39.70
2023-05-14T06:13:16.360Z,39.80
2023-05-14T06:15:43.288Z,38.00
2023-05-14T06:18:10.406Z,37.50
2023-05-14T06:20:37.384Z,38.30
2023-05-14T06:23:04.301Z,38.70
2023-05-14T06:25:31.191Z,39.10
2023-05-14T06:27:58.073Z,39.20
2023-05-14T06:30:25.254Z,39.40
2023-05-14T06:32:52.585Z,40.50
2023-05-14T06:35:19.715Z,40.90
2023-05-14T06:37:46.614Z,41.70
2023-05-14T06:40:17.783Z,41.50
2023-05-14T06:42:44.534Z,39.90
2023-05-14T06:45:11.786Z,39.10
2023-05-14T06:47:38.730Z,38.90
2023-05-14T06:50:05.989Z,37.90
2023-05-14T06:52:33.138Z,33.10
2023-05-14T06:55:00.050Z,32.70
2023-05-14T06:57:27.011Z,32.00
2023-05-14T06:59:53.899Z,30.10
2023-05-14T07:02:21.040Z,28.70
2023-05-14T07:04:48.258Z,26.50
2023-05-14T07:07:18.364Z,25.20
2023-05-14T07:09:45.282Z,23.20
2023-05-14T07:12:12.122Z,22.20
2023-05-14T07:14:39.091Z,19.60
2023-05-14T07:17:06.094Z,19.20
2023-05-14T07:19:33.005Z,18.60
2023-05-14T07:21:59.859Z,17.50
2023-05-14T07:24:26.779Z,16.40
2023-05-14T07:26:54.626Z,15.70
2023-05-14T07:29:21.534Z,16.00
2023-05-14T07:31:48.459Z,16.10
2023-05-14T07:34:15.504Z,15.40
2023-05-14T07:36:42.523Z,16.20
2023-05-14T07:39:09.535Z,16.40
2023-05-14T07:41:36.583Z,16.70
2023-05-14T07:44:03.518Z,16.50
2023-05-14T07:46:30.440Z,16.60
2023-05-14T07:48:57.325Z,16.00
2023-05-14T07:51:24.305Z,16.80
2023-05-14T07:53:51.347Z,16.50
2023-05-14T07:56:20.110Z,16.30
2023-05-14T07:58:47.161Z,16.80
2023-05-14T08:01:14.285Z,16.70
2023-05-14T08:03:41.259Z,15.70
2023-05-14T08:06:08.234Z,15.90
2023-05-14T08:08:35.279Z,15.10
2023-05-14T08:11:04.132Z,14.80
2023-05-14T08:13:31.064Z,14.60
2023-05-14T08:15:58.142Z,13.80
2023-05-14T08:18:25.165Z,14.10
2023-05-14T08:20:52.194Z,13.80
2023-05-14T08:23:19.181Z,13.20
2023-05-14T08:25:46.090Z,13.00
2023-05-14T08:28:12.978Z,13.40
2023-05-14T08:30:39.920Z,12.50
2023-05-14T08:33:06.902Z,11.20
2023-05-14T08:35:33.879Z,10.10
2023-05-14T08:38:02.146Z,9.00
2023-05-14T08:40:29.113Z,8.90
2023-05-14T08:42:57.483Z,9.30
2023-05-14T08:45:34.559Z,9.40
2023-05-14T08:48:05.728Z,10.30
2023-05-14T08:50:32.959Z,9.90
2023-05-14T08:52:59.913Z,10.20
2023-05-14T08:55:28.264Z,10.30
2023-05-14T08:57:55.946Z,10.30
2023-05-14T09:00:23.557Z,10.00
2023-05-14T09:02:51.539Z,10.10
2023-05-14T09:05:19.953Z,9.50
2023-05-14T09:07:47.161Z,9.80
2023-05-14T09:10:15.517Z,9.80
2023-05-14T09:12:42.487Z,9.70
2023-05-14T09:15:09.787Z,9.50
2023-05-14T09:17:36.781Z,8.40
2023-05-14T09:20:04.608Z,7.90
2023-05-14T09:22:32.396Z,8.60
2023-05-14T09:25:04.725Z,8.00
2023-05-14T09:27:33.080Z,8.00
2023-05-14T09:30:11.282Z,7.90
2023-05-14T09:32:46.369Z,7.20
2023-05-14T09:35:20.722Z,6.90
2023-05-14T09:37:55.318Z,6.40
2023-05-14T09:40:24.806Z,6.10
2023-05-14T09:42:52.126Z,6.10
2023-05-14T09:45:19.127Z,5.70
2023-05-14T09:47:46.255Z,5.50
2023-05-14T09:50:13.545Z,4.30
2023-05-14T09:52:40.731Z,5.80
2023-05-14T09:55:09.143Z,5.20
2023-05-14T09:57:36.092Z,5.40
2023-05-14T10:00:03.970Z,4.70
2023-05-14T10:02:41.409Z,5.80
2023-05-14T10:05:09.722Z,5.20
2023-05-14T10:07:44.504Z,5.60
2023-05-14T10:10:15.922Z,5.10
2023-05-14T10:12:49.802Z,5.10
2023-05-14T10:15:26.853Z,5.00
2023-05-14T10:17:58.388Z,5.00
2023-05-14T10:20:27.273Z,5.10
2023-05-14T10:22:54.378Z,5.30
2023-05-14T10:25:22.002Z,5.80
2023-05-14T10:27:49.163Z,6.00
2023-05-14T10:30:16.104Z,5.60
2023-05-14T10:32:44.351Z,5.00
2023-05-14T10:35:20.785Z,4.60
2023-05-14T10:37:51.272Z,5.90
2023-05-14T10:40:19.405Z,6.10
2023-05-14T10:42:47.016Z,6.50
2023-05-14T10:45:15.442Z,6.20
2023-05-14T10:47:44.276Z,6.60
2023-05-14T10:50:13.284Z,7.40
2023-05-14T10:52:44.433Z,7.50
2023-05-14T10:55:15.404Z,6.90
2023-05-14T10:57:43.421Z,7.40
2023-05-14T11:00:12.899Z,7.10
2023-05-14T11:02:41.862Z,7.00
2023-05-14T11:05:14.362Z,7.20
2023-05-14T11:07:46.761Z,7.70
2023-05-14T11:10:14.564Z,7.90
2023-05-14T11:12:43.730Z,7.10
2023-05-14T11:15:14.734Z,6.80
2023-05-14T11:17:42.346Z,7.30
2023-05-14T11:20:10.693Z,7.50
2023-05-14T11:22:38.977Z,7.20
2023-05-14T11:25:07.112Z,7.30
2023-05-14T11:27:41.412Z,7.90
2023-05-14T11:30:17.165Z,6.70
2023-05-14T11:32:48.930Z,6.70
2023-05-14T11:35:16.820Z,7.80
2023-05-14T11:37:49.754Z,7.30
2023-05-14T11:40:17.049Z,7.60
2023-05-14T11:42:44.030Z,7.50
2023-05-14T11:45:12.706Z,7.80
2023-05-14T11:47:41.398Z,8.00
2023-05-14T11:50:12.608Z,7.50
2023-05-14T11:52:42.388Z,7.80
2023-05-14T11:55:13.064Z,7.50
2023-05-14T11:57:41.185Z,7.90
2023-05-14T12:00:21.692Z,8.20
2023-05-14T12:02:50.018Z,8.80
2023-05-14T12:05:17.289Z,8.40
2023-05-14T12:07:48.039Z,8.30
2023-05-14T12:10:15.276Z,7.80
2023-05-14T12:12:47.152Z,7.80
2023-05-14T12:15:15.394Z,8.20
2023-05-14T12:17:42.813Z,7.60
2023-05-14T12:20:11.179Z,8.00
2023-05-14T12:22:38.326Z,8.00
2023-05-14T12:25:11.310Z,8.00
2023-05-14T12:27:38.787Z,7.70
2023-05-14T12:32:41.819Z,8.70
2023-05-14T12:35:10.172Z,9.10
2023-05-14T12:37:39.295Z,9.10
2023-05-14T12:40:09.861Z,9.70
2023-05-14T12:42:36.968Z,9.20
2023-05-14T12:45:07.275Z,9.10
2023-05-14T12:47:34.794Z,9.10
2023-05-14T12:50:01.903Z,9.20
2023-05-14T12:52:37.560Z,9.90
2023-05-14T12:55:07.909Z,10.00
2023-05-14T12:57:35.763Z,10.40
2023-05-14T13:00:06.496Z,11.10
2023-05-14T13:02:33.899Z,11.00
2023-05-14T13:05:10.874Z,10.90
2023-05-14T13:07:38.098Z,10.30
2023-05-14T13:10:08.305Z,11.90
2023-05-14T13:12:35.430Z,12.40
2023-05-14T13:15:02.588Z,11.90
2023-05-14T13:17:29.627Z,11.80
2023-05-14T13:19:56.542Z,12.30
2023-05-14T13:22:23.467Z,11.80
2023-05-14T13:24:50.392Z,12.70
2023-05-14T13:27:17.314Z,12.80
2023-05-14T13:29:44.292Z,12.70
2023-05-14T13:32:11.224Z,12.80
2023-05-14T13:34:38.089Z,11.30
2023-05-14T13:37:05.168Z,11.60
2023-05-14T13:39:32.066Z,11.30
2023-05-14T13:41:58.938Z,11.10
2023-05-14T13:44:25.945Z,11.80
2023-05-14T13:46:53.098Z,11.70
2023-05-14T13:49:20.075Z,11.30
2023-05-14T13:51:46.988Z,11.50
2023-05-14T13:54:13.874Z,12.10
2023-05-14T13:56:40.789Z,12.30
2023-05-14T13:59:07.800Z,12.30
2023-05-14T14:01:34.803Z,12.40
2023-05-14T14:04:01.690Z,12.20
2023-05-14T14:06:31.031Z,12.30
2023-05-14T14:08:57.977Z,12.20
2023-05-14T14:11:24.918Z,12.90
2023-05-14T14:13:51.861Z,12.70
2023-05-14T14:16:18.921Z,13.40
2023-05-14T14:18:45.923Z,12.90
2023-05-14T14:21:14.877Z,12.70
2023-05-14T14:23:43.677Z,13.10
2023-05-14T14:26:10.641Z,13.20
2023-05-14T14:28:37.619Z,13.20
2023-05-14T14:31:04.701Z,13.00
2023-05-14T14:33:31.648Z,13.20
2023-05-14T14:35:58.605Z,13.70
2023-05-14T14:38:25.672Z,13.10
2023-05-14T14:40:52.571Z,14.50
2023-05-14T14:43:19.508Z,14.40
2023-05-14T14:45:48.322Z,14.10
2023-05-14T14:48:34.340Z,14.10
2023-05-14T14:51:01.705Z,14.00
2023-05-14T14:53:28.902Z,14.20
2023-05-14T14:55:56.752Z,13.50
2023-05-14T14:58:24.825Z,13.80
2023-05-14T15:00:56.193Z,13.40
2023-05-14T15:03:24.483Z,13.10
2023-05-14T15:05:54.042Z,13.60
2023-05-14T15:08:27.610Z,14.10
2023-05-14T15:10:56.260Z,12.80
2023-05-14T15:13:24.164Z,13.90
2023-05-14T15:15:52.581Z,14.20
2023-05-14T15:18:19.626Z,14.80
2023-05-14T15:20:46.596Z,14.80
2023-05-14T15:23:13.600Z,14.70
2023-05-14T15:25:41.916Z,15.00
2023-05-14T15:28:08.912Z,15.50
2023-05-14T15:30:35.892Z,15.50
2023-05-14T15:33:03.111Z,16.30
2023-05-14T15:35:30.068Z,15.50
2023-05-14T15:37:59.928Z,17.00
2023-05-14T15:40:27.744Z,17.30
2023-05-14T15:42:54.839Z,17.10
2023-05-14T15:45:21.902Z,17.30
2023-05-14T15:47:48.818Z,17.70
2023-05-14T15:50:15.948Z,17.80
2023-05-14T15:52:42.944Z,18.00
2023-05-14T15:55:10.552Z,17.80
2023-05-14T15:57:38.727Z,17.40
2023-05-14T16:00:10.888Z,17.70
2023-05-14T16:02:39.256Z,17.90
2023-05-14T16:05:07.528Z,18.70
2023-05-14T16:07:34.865Z,18.80
2023-05-14T16:10:01.736Z,18.30
2023-05-14T16:12:28.615Z,19.00
2023-05-14T16:14:57.208Z,19.40
2023-05-14T16:17:24.200Z,20.30
2023-05-14T16:19:51.978Z,19.80
2023-05-14T16:22:19.782Z,20.40
2023-05-14T16:24:46.736Z,20.00
2023-05-14T16:27:13.602Z,20.10
2023-05-14T16:29:40.651Z,21.20
2023-05-14T16:32:07.847Z,21.40
2023-05-14T16:34:34.751Z,21.50
2023-05-14T16:37:01.774Z,21.40
2023-05-14T16:39:28.653Z,20.70
2023-05-14T16:41:55.607Z,21.50
2023-05-14T16:44:23.779Z,21.10
2023-05-14T16:46:51.269Z,22.00
2023-05-14T16:49:22.369Z,21.70
2023-05-14T16:51:49.237Z,22.10
2023-05-14T16:54:16.314Z,22.20
2023-05-14T16:56:48.142Z,21.60
2023-05-14T16:59:16.089Z,22.30
2023-05-14T17:01:44.222Z,21.90
2023-05-14T17:04:11.360Z,22.30
2023-05-14T17:06:38.348Z,22.20
2023-05-14T17:09:05.600Z,23.00
2023-05-14T17:11:32.580Z,23.00
2023-05-14T17:13:59.553Z,23.60
2023-05-14T17:16:27.188Z,23.80
2023-05-14T17:18:54.181Z,24.20
2023-05-14T17:21:21.221Z,24.40
2023-05-14T17:23:48.097Z,24.50
2023-05-14T17:26:15.004Z,24.60
2023-05-14T17:28:41.885Z,25.10
2023-05-14T17:31:08.914Z,25.00
2023-05-14T17:33:35.906Z,25.60
2023-05-14T17:36:02.956Z,25.80
2023-05-14T17:38:30.116Z,25.90
2023-05-14T17:40:57.187Z,26.50
2023-05-14T17:43:24.130Z,26.10
2023-05-14T17:45:54.350Z,26.60
2023-05-14T17:48:24.214Z,26.00
2023-05-14T17:50:52.514Z,26.90
2023-05-14T17:53:19.420Z,27.50
2023-05-14T17:55:46.404Z,28.60
2023-05-14T17:58:15.510Z,28.80
2023-05-14T18:00:43.515Z,29.40
2023-05-14T18:03:13.817Z,29.60
2023-05-14T18:05:41.185Z,30.10
2023-05-14T18:08:09.546Z,30.20
2023-05-14T18:10:36.493Z,30.90
2023-05-14T18:13:03.524Z,30.00
2023-05-14T18:15:31.813Z,55.80
2023-05-14T18:41:38.124Z,34.90
2023-05-14T18:44:04.994Z,35.80
2023-05-14T18:46:31.968Z,36.10
2023-05-14T18:48:59.020Z,35.60
2023-05-14T18:51:25.912Z,36.90
2023-05-14T18:53:52.810Z,37.20
2023-05-14T18:56:19.859Z,37.70
2023-05-14T18:58:46.844Z,38.40
2023-05-14T19:01:13.780Z,37.70
2023-05-14T19:03:42.263Z,39.40
2023-05-14T19:06:09.335Z,39.60
2023-05-14T19:08:36.348Z,40.60
2023-05-14T19:11:03.533Z,40.90
2023-05-14T19:13:30.571Z,41.40
2023-05-14T19:15:57.665Z,41.70
2023-05-14T19:18:24.761Z,41.70
2023-05-14T19:20:52.029Z,42.40
2023-05-14T19:23:21.304Z,42.70
2023-05-14T19:25:48.384Z,43.00
2023-05-14T19:28:15.474Z,42.90
2023-05-14T19:30:42.537Z,43.80
2023-05-14T19:33:09.699Z,44.20
2023-05-14T19:35:36.741Z,44.40
2023-05-14T19:38:03.685Z,44.70
2023-05-14T19:40:30.685Z,45.50
2023-05-14T19:42:57.582Z,45.70
2023-05-14T19:45:24.708Z,46.20
2023-05-14T19:47:52.073Z,47.00
2023-05-14T19:50:19.244Z,46.50
2023-05-14T19:52:46.212Z,47.60
2023-05-14T19:55:13.155Z,48.30
2023-05-14T19:57:40.117Z,48.90
2023-05-14T20:00:09.229Z,49.50
2023-05-14T20:02:36.311Z,49.70
2023-05-14T20:05:03.753Z,50.50
2023-05-14T20:07:30.658Z,51.40
2023-05-14T20:09:57.592Z,52.00
2023-05-14T20:12:24.470Z,52.80
2023-05-14T20:14:51.814Z,53.80
2023-05-14T20:17:18.848Z,54.60
2023-05-14T20:19:46.180Z,54.90
2023-05-14T20:22:13.322Z,54.50
2023-05-14T20:24:41.232Z,55.20
2023-05-14T20:27:08.312Z,57.40
2023-05-14T20:29:35.225Z,58.20
2023-05-14T20:32:02.136Z,59.30
2023-05-14T20:34:29.009Z,61.50
2023-05-14T20:36:56.149Z,61.90
2023-05-14T20:39:23.040Z,62.20
2023-05-14T20:41:49.940Z,61.60
2023-05-14T20:44:18.302Z,60.60
2023-05-14T20:46:46.180Z,65.60
2023-05-14T20:49:13.234Z,64.90
2023-05-14T20:51:41.203Z,66.20
2023-05-14T20:54:08.163Z,72.20
2023-05-14T20:59:06.064Z,66.10
2023-05-14T21:01:33.005Z,69.60
2023-05-14T21:04:00.175Z,67.00
2023-05-14T21:06:27.299Z,67.40
2023-05-14T21:08:54.205Z,67.80
2023-05-14T21:11:22.198Z,69.20
2023-05-14T21:13:49.240Z,69.80
2023-05-14T21:16:16.341Z,70.80
2023-05-14T21:18:44.108Z,75.60
2023-05-14T21:21:10.983Z,79.80
2023-05-14T21:23:37.952Z,76.90
2023-05-14T21:26:05.004Z,79.30
2023-05-14T21:28:31.897Z,81.90
2023-05-14T21:30:58.874Z,86.60
2023-05-14T21:33:25.720Z,84.50
2023-05-14T21:35:52.599Z,90.10
2023-05-14T21:38:19.827Z,93.90
2023-05-14T21:40:46.684Z,97.10
2023-05-14T21:43:13.540Z,99.30
2023-05-14T21:45:40.430Z,99.90
2023-05-14T21:48:07.885Z,99.90
2023-05-14T21:50:34.885Z,99.90
2023-05-14T21:53:01.806Z,99.90
2023-05-14T21:55:28.939Z,99.90
2023-05-14T21:57:55.932Z,99.90
2023-05-14T22:00:24.219Z,99.90
2023-05-14T22:02:52.949Z,99.90
2023-05-14T22:05:20.942Z,99.90
2023-05-14T22:07:48.477Z,99.90
2023-05-14T22:10:16.050Z,99.90
2023-05-14T22:12:44.645Z,99.90
2023-05-14T22:15:12.439Z,99.30
2023-05-14T22:17:39.454Z,96.30
2023-05-14T22:20:07.358Z,96.80
2023-05-14T22:22:34.408Z,96.60
2023-05-14T22:25:01.514Z,98.00
2023-05-14T22:27:28.382Z,98.30
2023-05-14T22:29:55.383Z,98.70
2023-05-14T22:32:22.394Z,99.90
2023-05-14T22:34:49.633Z,99.90
2023-05-14T22:37:17.156Z,99.90
2023-05-14T22:39:44.157Z,99.90
2023-05-14T22:42:11.210Z,99.90
2023-05-14T22:44:38.116Z,99.90
2023-05-14T22:47:05.368Z,99.90
2023-05-14T22:49:32.288Z,99.90
2023-05-14T22:51:59.429Z,99.90
2023-05-14T22:54:26.369Z,99.90
2023-05-14T22:56:53.284Z,99.90
2023-05-14T22:59:22.028Z,99.90
2023-05-14T23:01:50.622Z,99.90
2023-05-14T23:04:17.559Z,99.90
2023-05-14T23:06:44.724Z,99.90
2023-05-14T23:09:11.664Z,99.90
2023-05-14T23:11:38.632Z,99.90
2023-05-14T23:14:05.733Z,99.90
2023-05-14T23:16:32.779Z,99.90
2023-05-14T23:18:59.740Z,99.90
2023-05-14T23:21:26.810Z,99.90
2023-05-14T23:23:53.677Z,99.90
2023-05-14T23:26:21.664Z,99.90
2023-05-14T23:28:48.569Z,99.90
2023-05-14T23:31:15.476Z,99.90
2023-05-14T23:33:44.646Z,99.90
2023-05-14T23:36:11.683Z,99.90
2023-05-14T23:38:38.917Z,99.90
2023-05-14T23:41:05.792Z,99.90
2023-05-14T23:43:33.950Z,99.90
2023-05-14T23:46:01.444Z,99.90
2023-05-14T23:48:28.484Z,99.90
2023-05-14T23:50:55.424Z,99.90
2023-05-14T23:53:24.353Z,99.90
2023-05-14T23:55:51.291Z,99.90
2023-05-14T23:58:18.235Z,99.90
